Time;durP1;ratioP1;P1;durP2;ratioP2;P2;SDS_P1;SDS_P2;PMS_P1;PMS_P2;Temp;Humidity;BMP_temperature;BMP_pressure;BME280_temperature;BME280_humidity;BME280_pressure;Samples;Min_cycle;Max_cycle;Signal;HPM_P1;HPM_P2
2023/10/17 00:00:28;;;;;;;22.70;11.70;;;;;;;9.73;63.65;99537.27;234572;215;137035;-68
2023/10/17 00:05:56;;;;;;;21.30;12.10;;;;;;;9.70;63.91;99537.92;234628;215;148920;-69
2023/10/17 00:11:17;;;;;;;22.90;12.10;;;;;;;9.66;63.82;99530.33;234665;215;139795;-67
2023/10/17 00:16:21;;;;;;;22.30;12.30;;;;;;;9.65;63.95;99536.23;233586;215;137075;-65
2023/10/17 00:21:27;;;;;;;20.00;11.70;;;;;;;9.65;64.06;99532.34;234621;215;146001;-69
2023/10/17 00:26:31;;;;;;;;;;;;;;;9.61;63.97;99530.77;233480;215;138762;-71
2023/10/17 00:31:38;;;;;;;21.00;11.70;;;;;;;9.58;63.92;99532.87;234795;215;132042;-70
2023/10/17 00:36:48;;;;;;;21.80;12.20;;;;;;;9.56;63.97;99530.48;234734;215;146384;-67
2023/10/17 00:47:13;;;;;;;21.00;12.70;;;;;;;9.51;64.16;99524.89;234719;215;139928;-69
2023/10/17 00:52:29;;;;;;;26.20;14.10;;;;;;;9.57;64.23;99522.66;234587;215;144822;-69
2023/10/17 00:57:33;;;;;;;21.70;12.00;;;;;;;9.64;64.25;99521.20;234594;215;139407;-67
2023/10/17 01:02:44;;;;;;;21.30;12.80;;;;;;;9.68;64.51;99524.04;234646;215;137923;-66
2023/10/17 01:07:48;;;;;;;20.90;13.40;;;;;;;9.62;64.63;99522.23;234593;215;147952;-68
2023/10/17 01:12:56;;;;;;;20.20;13.60;;;;;;;9.58;64.73;99530.02;234817;215;138864;-67
2023/10/17 01:18:05;;;;;;;20.50;13.00;;;;;;;9.55;64.78;99532.83;234689;215;137742;-72
2023/10/17 01:23:11;;;;;;;24.40;13.40;;;;;;;9.54;64.83;99529.17;234703;215;145951;-67
2023/10/17 01:28:15;;;;;;;22.80;13.00;;;;;;;9.50;65.01;99533.63;234817;215;138957;-68
2023/10/17 01:33:18;;;;;;;21.20;13.00;;;;;;;9.43;65.12;99535.70;234515;215;137734;-66
2023/10/17 01:38:26;;;;;;;21.70;12.60;;;;;;;9.39;65.67;99536.10;234757;215;145764;-65
2023/10/17 01:43:36;;;;;;;22.10;14.00;;;;;;;9.30;65.93;99538.70;234275;215;139001;-65
2023/10/17 01:48:40;;;;;;;22.90;13.80;;;;;;;9.19;66.14;99540.27;234852;215;136871;-64
2023/10/17 01:53:48;;;;;;;23.70;14.20;;;;;;;9.12;66.19;99539.89;234720;215;145664;-64
2023/10/17 01:58:55;;;;;;;24.40;13.80;;;;;;;9.07;66.49;99548.27;234555;215;138726;-63
2023/10/17 02:04:03;;;;;;;21.20;13.90;;;;;;;9.05;66.61;99552.63;234693;215;137364;-69
2023/10/17 02:14:42;;;;;;;24.10;14.40;;;;;;;9.02;66.53;99554.00;234610;215;138878;-72
2023/10/17 02:19:47;;;;;;;25.20;14.20;;;;;;;8.99;66.42;99560.50;234674;215;136909;-66
2023/10/17 02:24:55;;;;;;;24.60;14.10;;;;;;;8.92;66.49;99556.42;234868;214;147071;-63
2023/10/17 02:29:58;;;;;;;22.60;14.50;;;;;;;8.89;66.52;99559.41;234650;215;141229;-64
2023/10/17 02:35:04;;;;;;;25.90;15.00;;;;;;;8.83;66.61;99560.93;234706;215;138421;-63
2023/10/17 02:40:23;;;;;;;205.40;147.00;;;;;;;8.82;67.29;99567.89;234565;215;145790;-62
2023/10/17 02:45:26;;;;;;;35.20;21.80;;;;;;;8.84;67.18;99567.08;234612;215;139937;-61
2023/10/17 02:55:35;;;;;;;21.40;14.00;;;;;;;8.80;67.26;99571.31;234758;215;146870;-61
2023/10/17 03:00:44;;;;;;;23.50;14.30;;;;;;;8.71;66.94;99574.02;234794;215;138939;-62
2023/10/17 03:05:53;;;;;;;21.70;13.90;;;;;;;8.71;67.08;99575.79;234649;215;136936;-63
2023/10/17 03:10:59;;;;;;;25.70;14.70;;;;;;;8.69;66.96;99580.47;234660;215;145643;-62
2023/10/17 03:16:14;;;;;;;44.60;30.10;;;;;;;8.63;67.05;99585.90;234645;215;139042;-62
2023/10/17 03:21:29;;;;;;;24.30;16.20;;;;;;;8.65;67.36;99590.58;234791;215;138610;-64
2023/10/17 03:26:39;;;;;;;21.50;13.30;;;;;;;8.60;66.87;99589.92;234867;215;146578;-63
2023/10/17 03:31:42;;;;;;;21.80;14.50;;;;;;;8.44;66.69;99593.45;234749;214;138374;-68
2023/10/17 03:36:49;;;;;;;26.60;14.50;;;;;;;8.27;66.86;99596.30;233890;214;137449;-65
2023/10/17 03:41:57;;;;;;;28.00;15.80;;;;;;;8.08;67.31;99598.18;232650;214;146435;-67
2023/10/17 03:47:04;;;;;;;26.40;14.50;;;;;;;7.97;67.69;99599.36;234842;215;140038;-65
2023/10/17 03:52:08;;;;;;;20.20;13.20;;;;;;;7.89;68.11;99597.74;234874;215;137294;-67
2023/10/17 03:57:15;;;;;;;54.30;36.10;;;;;;;7.85;68.52;99595.44;234784;214;144551;-67
2023/10/17 04:02:20;;;;;;;25.80;15.80;;;;;;;7.99;69.01;99595.36;234721;214;139180;-68
2023/10/17 04:07:29;;;;;;;23.80;13.00;;;;;;;8.15;68.31;99583.04;233350;212;137018;-66
2023/10/17 04:12:39;;;;;;;19.20;12.60;;;;;;;8.19;67.72;99581.97;234934;214;146272;-73
2023/10/17 04:17:46;;;;;;;25.20;13.70;;;;;;;8.17;67.54;99586.48;234714;215;138722;-67
2023/10/17 04:22:49;;;;;;;23.00;13.20;;;;;;;8.11;67.56;99587.64;234685;215;138008;-68
2023/10/17 04:27:54;;;;;;;29.60;13.90;;;;;;;8.02;67.32;99585.52;234761;214;145700;-64
2023/10/17 04:33:20;;;;;;;27.30;14.00;;;;;;;7.86;67.15;99589.38;234539;214;139360;-65
2023/10/17 04:38:27;;;;;;;31.90;13.10;;;;;;;7.71;67.31;99588.42;234615;215;139124;-67
2023/10/17 04:49:17;;;;;;;29.40;14.00;;;;;;;7.48;67.33;99592.21;234811;214;137534;-67
2023/10/17 04:54:22;;;;;;;25.10;14.40;;;;;;;7.36;67.65;99598.33;235008;215;137460;-66
2023/10/17 04:59:51;;;;;;;;;;;;;;;7.26;67.53;99593.95;234889;215;148218;-68
2023/10/17 06:19:47;;;;;;;23.00;10.70;;;;;;;7.29;69.90;99662.48;234875;214;149180;-67
2023/10/17 06:30:28;;;;;;;14.90;8.30;;;;;;;7.56;69.26;99662.84;234744;214;137136;-72
2023/10/17 06:35:33;;;;;;;18.80;9.60;;;;;;;7.70;68.70;99668.83;234723;214;148082;-74
2023/10/17 06:40:45;;;;;;;15.70;9.50;;;;;;;7.81;68.77;99677.38;234861;214;139075;-68
2023/10/17 06:45:54;;;;;;;19.80;10.00;;;;;;;7.91;68.50;99686.88;234904;214;137203;-70
2023/10/17 06:51:36;;;;;;;13.90;9.10;;;;;;;7.97;68.52;99686.27;234857;214;148012;-67
2023/10/17 06:56:38;;;;;;;14.80;8.40;;;;;;;8.08;68.08;99684.60;234869;212;139942;-65
2023/10/17 07:01:42;;;;;;;13.80;8.50;;;;;;;8.16;67.77;99678.98;234931;214;137208;-64
2023/10/17 07:06:47;;;;;;;14.50;8.20;;;;;;;8.24;67.94;99679.52;234936;214;147560;-67
2023/10/17 07:11:52;;;;;;;16.30;8.70;;;;;;;8.34;68.27;99683.70;234870;214;139367;-70
2023/10/17 07:17:00;;;;;;;18.80;9.20;;;;;;;8.48;67.78;99683.27;234869;214;137201;-70
2023/10/17 07:27:19;;;;;;;204.40;121.80;;;;;;;8.87;67.38;99680.17;234901;214;138782;-67
2023/10/17 07:32:32;;;;;;;17.70;10.00;;;;;;;9.27;66.66;99675.86;234813;214;138556;-66
2023/10/17 07:37:54;;;;;;;18.70;9.60;;;;;;;9.44;65.63;99671.17;234853;214;147989;-67
2023/10/17 07:43:03;;;;;;;16.50;8.80;;;;;;;9.58;64.50;99664.83;234903;214;138761;-70
2023/10/17 07:48:26;;;;;;;17.20;9.70;;;;;;;9.62;63.99;99661.99;234887;214;138309;-66
2023/10/17 07:53:32;;;;;;;20.40;10.10;;;;;;;9.69;63.56;99665.03;234833;214;148182;-70
2023/10/17 07:58:39;;;;;;;22.00;10.80;;;;;;;9.79;63.76;99667.91;234659;214;139501;-68
2023/10/17 08:04:30;;;;;;;22.80;11.30;;;;;;;9.85;63.95;99666.17;234831;214;137848;-67
2023/10/17 08:09:24;;;;;;;22.50;11.10;;;;;;;9.93;63.89;99670.95;234827;214;148125;-65
2023/10/17 08:14:42;;;;;;;20.10;9.70;;;;;;;10.00;63.40;99674.15;234900;214;139010;-71
2023/10/17 08:20:00;;;;;;;17.40;10.30;;;;;;;10.06;62.73;99672.63;234786;214;136993;-68
2023/10/17 08:25:13;;;;;;;19.00;9.10;;;;;;;10.14;62.51;99664.54;234951;214;147672;-68
2023/10/17 08:30:23;;;;;;;13.30;8.70;;;;;;;10.31;61.88;99668.18;234917;214;140678;-72
2023/10/17 08:35:51;;;;;;;14.30;8.60;;;;;;;10.40;60.50;99670.38;234783;214;137248;-69
2023/10/17 08:40:55;;;;;;;15.00;7.30;;;;;;;10.44;59.97;99672.48;234818;214;147205;-72
2023/10/17 08:45:58;;;;;;;12.90;7.10;;;;;;;10.43;59.78;99671.66;234863;214;138920;-68
2023/10/17 08:51:07;;;;;;;14.90;8.20;;;;;;;10.53;59.85;99667.07;234934;214;138000;-69
2023/10/17 08:56:28;;;;;;;19.10;8.50;;;;;;;10.68;59.22;99669.12;234872;214;149324;-67
2023/10/17 09:01:31;;;;;;;14.40;7.80;;;;;;;10.81;59.18;99668.23;234771;214;138796;-70
2023/10/17 09:06:48;;;;;;;14.50;7.80;;;;;;;10.95;59.39;99667.16;235192;214;138610;-67
2023/10/17 09:12:01;;;;;;;11.20;7.90;;;;;;;11.11;59.52;99657.79;234735;214;147323;-68
2023/10/17 09:17:30;;;;;;;13.70;7.60;;;;;;;11.27;58.42;99662.77;234654;214;138667;-70
2023/10/17 09:22:44;;;;;;;10.40;6.80;;;;;;;11.41;57.61;99660.91;234916;214;137821;-71
2023/10/17 09:27:52;;;;;;;12.40;6.80;;;;;;;11.48;56.21;99657.67;234700;214;147687;-70
2023/10/17 09:32:55;;;;;;;13.40;7.30;;;;;;;11.49;55.70;99660.67;234692;214;140034;-71
2023/10/17 09:38:00;;;;;;;13.70;7.40;;;;;;;11.52;55.44;99660.63;234883;214;137914;-70
2023/10/17 09:43:03;;;;;;;15.50;7.30;;;;;;;11.57;55.14;99662.87;234956;214;147717;-70
2023/10/17 09:48:08;;;;;;;14.20;7.90;;;;;;;11.72;55.97;99660.59;234841;214;140342;-69
2023/10/17 09:53:18;;;;;;;13.20;6.20;;;;;;;11.91;55.20;99660.27;233059;214;137074;-64
2023/10/17 09:58:28;;;;;;;9.20;5.90;;;;;;;11.97;53.94;99658.62;234870;214;149016;-71
2023/10/17 10:03:35;;;;;;;14.00;5.70;;;;;;;11.92;53.08;99648.46;234735;214;138937;-69
2023/10/17 10:08:38;;;;;;;8.40;5.20;;;;;;;11.84;52.84;99640.56;234894;214;138322;-67
2023/10/17 10:14:04;;;;;;;7.30;5.10;;;;;;;11.77;52.40;99639.47;234964;214;149051;-69
2023/10/17 10:19:07;;;;;;;6.80;3.90;;;;;;;11.78;51.53;99636.08;234929;214;140505;-73
2023/10/17 10:24:18;;;;;;;7.40;4.40;;;;;;;11.80;51.07;99628.84;234932;214;137537;-66
2023/10/17 10:29:23;;;;;;;8.90;5.30;;;;;;;12.10;52.50;99625.71;234789;214;147309;-71
2023/10/17 10:34:26;;;;;;;12.20;4.80;;;;;;;12.37;52.63;99614.34;234790;214;139398;-71
2023/10/17 10:39:30;;;;;;;8.30;4.40;;;;;;;12.41;50.99;99608.95;234836;214;139342;-70
2023/10/17 10:44:42;;;;;;;5.30;4.00;;;;;;;12.36;50.73;99595.31;234919;214;147457;-70
2023/10/17 10:49:49;;;;;;;8.20;3.80;;;;;;;12.29;49.51;99589.32;234761;214;138891;-72
2023/10/17 10:54:59;;;;;;;9.20;3.90;;;;;;;12.28;49.47;99582.83;235038;214;137251;-67
2023/10/17 11:00:08;;;;;;;6.60;3.80;;;;;;;12.37;49.05;99579.13;234741;214;148482;-71
2023/10/17 11:05:13;;;;;;;8.10;4.20;;;;;;;12.45;49.27;99575.00;234792;214;138829;-69
2023/10/17 11:10:18;;;;;;;11.10;4.80;;;;;;;12.49;49.25;99570.15;234624;214;137013;-71
2023/10/17 11:15:26;;;;;;;9.20;4.30;;;;;;;12.51;50.10;99567.22;234721;214;147511;-69
2023/10/17 11:20:30;;;;;;;11.70;4.40;;;;;;;12.51;49.85;99559.16;234837;214;139701;-72
2023/10/17 11:25:34;;;;;;;7.10;4.30;;;;;;;12.55;49.89;99549.34;234782;213;137621;-68
2023/10/17 11:30:40;;;;;;;7.80;4.40;;;;;;;12.56;49.75;99542.83;234897;213;147447;-70
2023/10/17 11:35:52;;;;;;;8.90;4.10;;;;;;;12.63;50.28;99538.01;234734;214;140028;-68
2023/10/17 11:40:59;;;;;;;9.10;4.40;;;;;;;12.69;49.99;99538.66;234680;214;137103;-69
2023/10/17 11:46:04;;;;;;;10.60;4.10;;;;;;;12.66;49.47;99539.20;234736;214;147434;-70
2023/10/17 11:51:13;;;;;;;13.40;4.40;;;;;;;12.64;49.52;99539.69;234666;214;139000;-69
2023/10/17 11:56:20;;;;;;;10.80;4.20;;;;;;;12.64;49.33;99534.55;234858;214;137872;-60
2023/10/17 12:01:24;;;;;;;6.60;3.50;;;;;;;12.65;49.80;99534.69;234655;211;148504;-68
2023/10/17 12:06:27;;;;;;;8.80;4.10;;;;;;;12.64;49.65;99528.85;234789;214;140347;-66
2023/10/17 12:11:31;;;;;;;7.60;3.50;;;;;;;12.64;49.62;99527.42;234582;214;138105;-65
2023/10/17 12:16:34;;;;;;;18.70;3.80;;;;;;;12.63;48.89;99524.29;234796;214;147677;-69
2023/10/17 12:21:39;;;;;;;6.50;3.60;;;;;;;12.60;48.68;99512.91;234685;214;139368;-67
2023/10/17 12:26:45;;;;;;;8.10;3.30;;;;;;;12.59;48.55;99510.09;234788;214;139343;-68
2023/10/17 12:31:48;;;;;;;5.30;3.40;;;;;;;12.63;48.97;99503.83;234772;214;148047;-69
2023/10/17 12:36:51;;;;;;;6.90;3.20;;;;;;;12.66;48.79;99495.02;234822;214;139598;-67
2023/10/17 12:41:55;;;;;;;6.50;3.00;;;;;;;12.68;48.39;99496.36;234718;214;138101;-69
2023/10/17 12:46:59;;;;;;;12.00;3.50;;;;;;;12.68;48.50;99494.02;234501;214;147466;-68
2023/10/17 12:52:03;;;;;;;105.90;78.60;;;;;;;12.66;48.55;99488.45;234706;214;138878;-69
2023/10/17 12:57:08;;;;;;;9.40;4.80;;;;;;;12.67;49.52;99479.52;234815;214;138514;-65
2023/10/17 13:02:12;;;;;;;4.70;3.00;;;;;;;12.64;48.41;99478.64;234748;214;147416;-71
2023/10/17 13:07:15;;;;;;;7.40;3.10;;;;;;;12.62;48.32;99471.84;234809;214;139224;-73
2023/10/17 13:12:19;;;;;;;7.90;3.60;;;;;;;12.58;48.27;99467.07;234447;214;137903;-71
2023/10/17 13:17:24;;;;;;;11.40;3.20;;;;;;;12.54;48.70;99463.59;234548;214;148817;-65
2023/10/17 13:22:28;;;;;;;9.10;3.10;;;;;;;12.54;48.66;99458.26;234744;214;138829;-70
2023/10/17 13:27:31;;;;;;;8.30;3.30;;;;;;;12.56;48.78;99453.01;234823;214;138177;-69
2023/10/17 13:32:34;;;;;;;12.50;8.50;;;;;;;12.59;48.87;99449.96;234608;214;146702;-70
2023/10/17 13:37:51;;;;;;;9.60;4.90;;;;;;;12.69;49.68;99444.99;234700;214;140143;-67
2023/10/17 13:42:54;;;;;;;12.60;3.80;;;;;;;12.73;48.83;99444.05;234844;214;137319;-71
2023/10/17 13:47:57;;;;;;;49.00;8.70;;;;;;;12.75;48.88;99432.18;234567;214;148591;-67
2023/10/17 13:53:09;;;;;;;34.90;21.30;;;;;;;12.78;49.16;99430.89;234609;214;141280;-66
2023/10/17 13:58:12;;;;;;;8.80;4.00;;;;;;;12.83;48.83;99424.70;234521;214;138798;-68
2023/10/17 14:03:17;;;;;;;9.50;4.40;;;;;;;12.78;48.63;99427.70;234571;214;147226;-71
2023/10/17 14:08:25;;;;;;;14.00;5.00;;;;;;;12.75;49.00;99426.64;234637;214;138902;-66
2023/10/17 14:13:28;;;;;;;7.80;4.10;;;;;;;12.73;49.01;99422.48;234623;212;137957;-70
2023/10/17 14:18:40;;;;;;;39.90;32.70;;;;;;;12.71;48.70;99420.50;234881;214;149499;-72
2023/10/17 14:23:57;;;;;;;8.70;5.10;;;;;;;12.71;49.70;99413.21;234587;214;138784;-72
2023/10/17 14:29:01;;;;;;;10.60;3.70;;;;;;;12.67;48.84;99407.98;234581;214;137242;-67
2023/10/17 14:34:09;;;;;;;11.90;3.60;;;;;;;12.60;48.48;99413.58;234693;214;147347;-71
2023/10/17 14:39:12;;;;;;;7.30;3.60;;;;;;;12.52;48.65;99408.92;234693;214;138726;-72
2023/10/17 14:44:15;;;;;;;9.60;4.20;;;;;;;12.46;48.85;99406.78;234095;214;136818;-67
2023/10/17 14:49:19;;;;;;;28.50;20.70;;;;;;;12.45;49.56;99402.98;234724;214;148143;-68
2023/10/17 14:54:23;;;;;;;8.40;4.30;;;;;;;12.42;48.89;99401.16;234560;215;139082;-73
2023/10/17 14:59:26;;;;;;;10.80;4.10;;;;;;;12.30;49.03;99394.46;234576;214;136663;-73
2023/10/17 15:04:30;;;;;;;8.00;3.90;;;;;;;12.20;49.66;99396.73;234462;215;148301;-71
2023/10/17 15:09:36;;;;;;;7.90;4.10;;;;;;;12.07;50.02;99395.76;234438;215;139508;-72
2023/10/17 15:14:40;;;;;;;8.00;4.30;;;;;;;11.97;49.95;99403.15;234638;215;137632;-68
2023/10/17 15:19:44;;;;;;;15.50;6.10;;;;;;;11.82;50.34;99399.92;234514;214;147419;-70
2023/10/17 15:24:50;;;;;;;15.10;5.20;;;;;;;11.69;50.98;99401.27;234005;215;140920;-64
2023/10/17 15:29:54;;;;;;;9.90;4.60;;;;;;;11.58;51.32;99403.69;234190;215;137782;-66
2023/10/17 15:35:00;;;;;;;34.70;21.80;;;;;;;11.52;52.45;99402.63;233412;213;147335;-64
2023/10/17 15:40:07;;;;;;;12.40;5.20;;;;;;;11.48;52.44;99410.73;234633;214;138581;-68
2023/10/17 15:45:14;;;;;;;15.50;6.30;;;;;;;11.42;52.75;99412.51;234778;215;137174;-66
2023/10/17 15:50:17;;;;;;;13.30;5.60;;;;;;;11.39;53.32;99414.28;234801;215;148217;-64
2023/10/17 15:55:22;;;;;;;15.00;5.90;;;;;;;11.36;54.13;99414.60;234607;215;140482;-65
2023/10/17 16:00:25;;;;;;;17.50;5.80;;;;;;;11.30;54.53;99421.70;234531;215;138320;-70
2023/10/17 16:05:30;;;;;;;13.10;5.70;;;;;;;11.26;54.79;99427.10;234691;215;147319;-65
2023/10/17 16:10:34;;;;;;;16.40;5.80;;;;;;;11.25;55.10;99426.82;234540;215;138511;-62
2023/10/17 16:15:39;;;;;;;14.70;5.70;;;;;;;11.23;55.24;99423.00;234641;215;136923;-71
2023/10/17 16:20:42;;;;;;;18.20;5.60;;;;;;;11.20;55.55;99421.57;234764;215;147750;-68
2023/10/17 16:25:49;;;;;;;44.10;25.80;;;;;;;11.20;56.41;99424.60;234539;215;138903;-70
2023/10/17 16:30:53;;;;;;;17.30;6.90;;;;;;;11.28;56.27;99425.57;234617;215;138252;-67
2023/10/17 16:36:00;;;;;;;16.60;5.90;;;;;;;11.24;56.27;99435.77;234529;215;148969;-73
2023/10/17 16:41:04;;;;;;;16.20;5.60;;;;;;;11.20;56.62;99435.31;234583;214;139084;-68
2023/10/17 16:46:10;;;;;;;15.40;5.10;;;;;;;11.15;56.91;99430.09;234558;215;138257;-68
2023/10/17 16:51:17;;;;;;;19.20;5.20;;;;;;;11.10;56.05;99430.32;234554;215;147475;-68
2023/10/17 16:56:21;;;;;;;17.60;5.20;;;;;;;11.06;55.71;99411.41;234486;214;139421;-73
2023/10/17 17:01:25;;;;;;;21.40;5.50;;;;;;;10.99;56.36;99405.76;232835;215;137746;-66
2023/10/17 17:06:29;;;;;;;25.00;5.80;;;;;;;10.89;56.62;99410.09;234920;214;147560;-71
2023/10/17 17:11:33;;;;;;;19.20;5.40;;;;;;;10.79;57.18;99416.67;233800;215;138309;-73
2023/10/17 17:16:36;;;;;;;382.30;260.40;;;;;;;10.69;57.85;99430.20;234571;215;137228;-75
2023/10/17 17:21:41;;;;;;;69.90;41.90;;;;;;;10.65;58.60;99423.17;234546;215;147410;-72
2023/10/17 17:26:47;;;;;;;15.70;7.00;;;;;;;10.60;58.88;99417.73;234705;213;138773;-71
2023/10/17 17:31:51;;;;;;;17.20;6.20;;;;;;;10.46;59.10;99415.52;234543;215;137111;-70
2023/10/17 17:36:58;;;;;;;20.30;5.80;;;;;;;10.32;59.50;99414.36;234617;208;147381;-73
2023/10/17 17:42:01;;;;;;;17.90;6.40;;;;;;;10.22;59.77;99409.19;234532;215;141223;-72
2023/10/17 17:47:04;;;;;;;73.10;43.60;;;;;;;10.11;60.28;99418.14;234611;215;138692;-72
2023/10/17 17:52:10;;;;;;;46.80;22.60;;;;;;;10.14;61.53;99419.21;234549;215;147787;-74
2023/10/17 17:57:14;;;;;;;18.10;8.00;;;;;;;10.21;60.85;99412.95;234484;215;140842;-68
2023/10/17 18:02:19;;;;;;;18.30;7.30;;;;;;;10.11;61.05;99411.73;234816;214;137138;-74
2023/10/17 18:07:23;;;;;;;20.60;6.60;;;;;;;10.03;61.37;99404.68;233364;213;147610;-68
2023/10/17 18:12:26;;;;;;;16.20;6.80;;;;;;;9.93;61.29;99407.91;232313;215;138794;-68
2023/10/17 18:17:33;;;;;;;13.50;7.20;;;;;;;9.85;61.51;99408.70;232550;215;136653;-66
2023/10/17 18:22:37;;;;;;;20.10;7.10;;;;;;;9.77;61.77;99409.46;232492;215;148299;-65
2023/10/17 18:27:42;;;;;;;14.90;7.50;;;;;;;9.66;62.21;99413.73;232428;215;141026;-63
2023/10/17 18:32:47;;;;;;;16.40;7.50;;;;;;;9.58;62.48;99417.17;232597;215;137082;-64
2023/10/17 18:37:51;;;;;;;14.70;7.30;;;;;;;9.50;62.70;99421.36;232584;211;148199;-73
2023/10/17 18:42:56;;;;;;;13.20;7.80;;;;;;;9.41;62.68;99426.58;232514;207;141514;-68
2023/10/17 18:48:01;;;;;;;16.40;7.60;;;;;;;9.32;62.76;99428.79;234610;212;138271;-68
2023/10/17 18:53:04;;;;;;;16.70;7.40;;;;;;;9.24;63.27;99433.63;234432;215;147757;-70
2023/10/17 18:58:09;;;;;;;135.80;99.10;;;;;;;9.15;63.58;99440.10;234476;215;139521;-66
2023/10/17 19:03:13;;;;;;;41.60;26.60;;;;;;;9.18;65.45;99435.67;234443;215;137004;-66
2023/10/17 19:08:17;;;;;;;20.50;9.40;;;;;;;9.29;64.11;99431.61;234653;215;149599;-69
2023/10/17 19:13:20;;;;;;;18.90;8.70;;;;;;;9.18;64.04;99435.88;234518;215;139933;-69
2023/10/17 19:18:24;;;;;;;20.50;10.30;;;;;;;9.10;64.33;99430.25;234464;215;136939;-65
2023/10/17 19:23:27;;;;;;;118.80;98.30;;;;;;;9.01;64.50;99428.58;234486;214;148655;-72
2023/10/17 19:28:30;;;;;;;20.30;12.90;;;;;;;8.98;64.91;99433.33;234550;215;138742;-73
2023/10/17 19:33:35;;;;;;;21.40;12.30;;;;;;;8.86;64.27;99430.20;234356;215;136722;-71
2023/10/17 19:38:38;;;;;;;23.30;11.70;;;;;;;8.76;64.42;99428.19;234591;215;148242;-70
2023/10/17 19:48:39;;;;;;;23.00;13.00;;;;;;;8.58;64.87;99419.51;231541;221;723602;-66
2023/10/17 19:53:48;;;;;;;27.50;12.80;;;;;;;8.52;65.02;99413.77;234452;215;136450;-72
2023/10/17 19:58:51;;;;;;;26.80;13.20;;;;;;;8.50;64.86;99409.81;234368;216;145687;-74
2023/10/17 20:03:55;;;;;;;24.80;14.00;;;;;;;8.51;64.86;99418.09;234354;216;138666;-74
2023/10/17 20:08:58;;;;;;;25.90;14.00;;;;;;;8.47;64.89;99421.48;234462;216;137347;-74
2023/10/17 20:14:02;;;;;;;24.10;13.70;;;;;;;8.43;65.01;99416.88;234426;215;145688;-74
2023/10/17 20:19:07;;;;;;;24.40;13.20;;;;;;;8.38;64.89;99416.20;234547;215;138983;-75
2023/10/17 20:24:11;;;;;;;24.90;12.70;;;;;;;8.32;65.02;99409.91;234366;216;137345;-70
2023/10/17 20:29:15;;;;;;;23.20;13.10;;;;;;;8.24;65.06;99406.92;233180;213;144138;-66
2023/10/17 20:34:19;;;;;;;23.20;13.30;;;;;;;8.16;65.13;99407.66;232855;214;139598;-67
2023/10/17 20:39:26;;;;;;;31.00;14.50;;;;;;;8.09;65.25;99411.88;234123;216;136399;-65
2023/10/17 20:44:34;;;;;;;24.70;13.50;;;;;;;7.98;65.17;99406.91;232799;216;146433;-67
2023/10/17 20:49:39;;;;;;;24.30;13.80;;;;;;;7.91;65.57;99409.00;232794;216;140609;-67
2023/10/17 20:54:44;;;;;;;23.70;14.00;;;;;;;7.86;65.68;99411.87;234590;215;136218;-71
2023/10/17 20:59:47;;;;;;;28.00;14.60;;;;;;;7.78;65.94;99416.98;233476;215;146824;-70
2023/10/17 21:04:52;;;;;;;32.10;17.70;;;;;;;7.71;66.10;99417.85;232906;216;139199;-67
2023/10/17 21:09:56;;;;;;;32.30;18.90;;;;;;;7.64;66.35;99411.08;233200;216;138494;-75
2023/10/17 21:15:00;;;;;;;34.70;19.80;;;;;;;7.55;66.66;99407.76;234370;213;145770;-72
2023/10/17 21:20:04;;;;;;;32.70;17.70;;;;;;;7.53;66.86;99405.20;234363;215;139177;-68
2023/10/17 21:25:07;;;;;;;31.50;17.60;;;;;;;7.53;67.11;99401.34;234583;216;138253;-72
2023/10/17 21:30:12;;;;;;;31.60;18.30;;;;;;;7.63;67.27;99399.61;234445;216;145578;-71
2023/10/17 21:35:15;;;;;;;30.00;18.90;;;;;;;7.75;67.12;99401.92;234658;214;140685;-70
2023/10/17 21:40:18;;;;;;;31.10;19.30;;;;;;;7.80;67.17;99389.33;234767;214;137254;-70
2023/10/17 21:45:21;;;;;;;33.00;18.90;;;;;;;7.86;67.03;99375.85;234793;214;145640;-73
2023/10/17 21:50:25;;;;;;;32.60;18.80;;;;;;;7.88;67.01;99372.23;234763;214;138653;-73
2023/10/17 21:55:28;;;;;;;29.10;18.30;;;;;;;7.89;66.98;99363.00;234889;214;136688;-67
2023/10/17 22:05:41;;;;;;;30.50;18.60;;;;;;;7.80;66.58;99369.91;234679;214;138837;-67
2023/10/17 22:10:44;;;;;;;33.30;19.70;;;;;;;7.79;66.80;99359.73;234705;214;137784;-72
2023/10/17 22:15:47;;;;;;;35.40;20.70;;;;;;;7.74;66.32;99363.81;234639;212;145886;-60
2023/10/17 22:20:51;;;;;;;32.40;20.10;;;;;;;7.63;66.45;99354.63;234603;214;138820;-74
2023/10/17 22:25:54;;;;;;;31.50;21.60;;;;;;;7.58;66.61;99354.15;234818;214;136112;-69
2023/10/17 22:30:57;;;;;;;36.80;20.90;;;;;;;7.48;66.85;99355.11;234650;213;145466;-68
2023/10/17 22:36:01;;;;;;;31.50;19.00;;;;;;;7.51;67.15;99345.63;234629;214;141245;-71
2023/10/17 22:41:04;;;;;;;31.00;18.70;;;;;;;7.47;67.24;99345.60;234815;214;138587;-72
2023/10/17 22:46:08;;;;;;;32.00;19.10;;;;;;;7.55;67.14;99351.60;234648;214;145648;-70
2023/10/17 22:51:13;;;;;;;32.40;18.70;;;;;;;7.51;66.93;99351.79;234686;214;139265;-69
2023/10/17 22:56:16;;;;;;;37.20;20.60;;;;;;;7.45;67.03;99352.41;234854;214;140211;-71
2023/10/17 23:01:20;;;;;;;31.70;17.90;;;;;;;7.41;67.11;99350.66;234833;214;145889;-70
2023/10/17 23:06:24;;;;;;;30.70;18.80;;;;;;;7.35;67.22;99351.24;234573;214;139653;-72
2023/10/17 23:11:27;;;;;;;35.20;19.00;;;;;;;7.34;67.24;99359.94;234751;214;137824;-74
2023/10/17 23:16:31;;;;;;;28.60;17.50;;;;;;;7.30;67.22;99362.95;234553;214;147466;-70
2023/10/17 23:21:37;;;;;;;29.20;17.30;;;;;;;7.19;67.24;99357.95;234517;214;138643;-68
2023/10/17 23:26:40;;;;;;;29.80;18.40;;;;;;;7.11;67.33;99352.83;234695;214;136457;-66
2023/10/17 23:31:44;;;;;;;29.30;16.80;;;;;;;7.04;67.46;99351.20;234983;214;145698;-76
2023/10/17 23:36:47;;;;;;;27.60;17.20;;;;;;;6.97;67.48;99344.77;234838;214;139801;-72
2023/10/17 23:41:51;;;;;;;28.60;17.40;;;;;;;6.92;67.84;99356.45;234817;214;138211;-71
2023/10/17 23:46:54;;;;;;;26.10;16.80;;;;;;;6.90;67.54;99364.12;234711;214;145640;-71
2023/10/17 23:51:57;;;;;;;26.70;15.00;;;;;;;6.91;67.64;99364.46;234329;214;139222;-63
2023/10/17 23:57:04;;;;;;;34.00;18.10;;;;;;;6.93;67.65;99352.36;234409;215;138199;-63
